Time;durP1;ratioP1;P1;durP2;ratioP2;P2;SDS_P1;SDS_P2;PMS_P1;PMS_P2;Temp;Humidity;BMP_temperature;BMP_pressure;BME280_temperature;BME280_humidity;BME280_pressure;Samples;Min_cycle;Max_cycle;Signal;HPM_P1;HPM_P2
2022/04/13 00:01:06;;;;;;;17.23;9.82;;;;;;;7.15;60.90;99192.63;4844017;29;20052;-78
2022/04/13 00:03:31;;;;;;;14.52;9.70;;;;;;;7.22;60.50;99193.91;4843833;29;20592;-77
2022/04/13 00:05:57;;;;;;;14.23;8.98;;;;;;;7.28;60.67;99196.16;4860588;29;20050;-78
2022/04/13 00:08:23;;;;;;;15.38;9.27;;;;;;;7.35;60.39;99199.25;4829061;29;20041;-77
2022/04/13 00:10:49;;;;;;;15.38;8.40;;;;;;;7.35;60.38;99192.09;4843988;29;20082;-78
2022/04/13 00:13:15;;;;;;;12.10;9.10;;;;;;;7.33;60.36;99185.19;4844193;29;20061;-79
2022/04/13 00:15:41;;;;;;;10.15;8.30;;;;;;;7.44;60.25;99196.78;4844571;29;20056;-79
2022/04/13 00:18:08;;;;;;;13.40;8.75;;;;;;;7.47;60.05;99182.44;4860686;29;20045;-79
2022/04/13 00:20:35;;;;;;;11.18;8.75;;;;;;;7.43;59.88;99189.75;4843891;29;20041;-78
2022/04/13 00:23:01;;;;;;;14.48;7.88;;;;;;;7.47;59.57;99196.56;4843780;29;20042;-78
2022/04/13 00:25:28;;;;;;;10.35;7.40;;;;;;;7.40;60.17;99191.78;4831727;29;20082;-79
2022/04/13 00:27:55;;;;;;;10.75;7.72;;;;;;;7.40;59.79;99181.16;4864048;29;20057;-79
2022/04/13 00:30:21;;;;;;;9.70;8.02;;;;;;;7.52;59.56;99186.47;4832071;29;20528;-79
2022/04/13 00:32:47;;;;;;;17.23;9.00;;;;;;;7.49;59.55;99176.06;4832081;29;20041;-78
2022/04/13 00:35:17;;;;;;;16.55;8.63;;;;;;;7.47;59.46;99163.81;4832507;29;20049;-79
2022/04/13 00:37:43;;;;;;;12.30;8.57;;;;;;;7.46;59.61;99176.25;4863971;29;20519;-79
2022/04/13 00:40:09;;;;;;;16.33;8.27;;;;;;;7.39;59.60;99180.31;4847314;29;20048;-79
2022/04/13 00:42:36;;;;;;;16.38;8.20;;;;;;;7.40;59.68;99182.00;4863841;29;20049;-80
2022/04/13 00:45:03;;;;;;;10.50;8.18;;;;;;;7.38;59.52;99183.94;4831856;29;20076;-78
2022/04/13 00:47:29;;;;;;;13.65;8.30;;;;;;;7.39;59.73;99176.78;4831798;29;20056;-79
2022/04/13 00:49:55;;;;;;;13.90;8.55;;;;;;;7.30;59.67;99180.94;4847017;29;20052;-78
2022/04/13 00:52:26;;;;;;;9.90;7.70;;;;;;;7.27;59.64;99165.22;4847253;29;20417;-77
2022/04/13 00:54:54;;;;;;;14.20;8.85;;;;;;;7.25;59.56;99164.44;4847079;29;20045;-80
2022/04/13 00:57:22;;;;;;;14.10;9.10;;;;;;;7.21;60.13;99173.59;4831712;29;20045;-77
2022/04/13 00:59:53;;;;;;;14.85;9.48;;;;;;;7.13;60.14;99170.63;4831650;29;20045;-79
2022/04/13 01:02:19;;;;;;;16.52;9.38;;;;;;;7.20;59.90;99169.25;4862491;29;20057;-77
2022/04/13 01:04:48;;;;;;;26.52;8.85;;;;;;;7.10;60.12;99173.47;4847050;29;20106;-79
2022/04/13 01:07:14;;;;;;;14.15;9.80;;;;;;;7.01;60.65;99175.81;4847045;29;20077;-78
2022/04/13 01:09:40;;;;;;;14.65;9.25;;;;;;;6.98;60.57;99170.69;4846829;29;20140;-79
2022/04/13 01:12:07;;;;;;;18.67;9.43;;;;;;;6.90;61.23;99166.88;4831273;29;20049;-78
2022/04/13 01:14:34;;;;;;;14.65;9.30;;;;;;;6.80;61.67;99162.16;4862955;29;20068;-79
2022/04/13 01:17:01;;;;;;;16.77;8.93;;;;;;;6.72;61.83;99153.00;4846843;29;20049;-79
2022/04/13 01:19:27;;;;;;;13.27;8.77;;;;;;;6.88;61.48;99164.31;4831764;29;20409;-79
2022/04/13 01:21:58;;;;;;;26.50;10.55;;;;;;;6.91;61.50;99164.09;4831163;29;20136;-80
2022/04/13 01:24:25;;;;;;;14.82;9.50;;;;;;;7.02;61.48;99160.72;4862942;29;20573;-78
2022/04/13 01:26:51;;;;;;;44.85;11.30;;;;;;;7.03;61.54;99157.09;4862951;29;20092;-79
2022/04/13 01:29:17;;;;;;;15.82;9.50;;;;;;;7.06;61.17;99157.75;4846954;29;20498;-77
2022/04/13 01:31:46;;;;;;;17.05;10.02;;;;;;;7.01;61.23;99156.38;4831172;29;20144;-79
2022/04/13 01:34:15;;;;;;;22.48;9.98;;;;;;;7.06;61.30;99165.72;4846357;29;20072;-77
2022/04/13 01:36:41;;;;;;;33.13;10.52;;;;;;;7.12;60.97;99160.94;4829853;29;20053;-80
2022/04/13 01:39:08;;;;;;;22.40;10.88;;;;;;;7.15;61.03;99160.75;4841330;29;20057;-79
2022/04/13 01:41:34;;;;;;;20.70;10.45;;;;;;;7.13;60.80;99157.31;4844304;29;20050;-78
2022/04/13 01:44:00;;;;;;;21.10;9.90;;;;;;;7.04;60.96;99154.34;4844178;29;20050;-78
2022/04/13 01:46:26;;;;;;;24.83;10.18;;;;;;;7.12;61.11;99158.28;4843357;29;20045;-79
2022/04/13 01:48:52;;;;;;;21.98;11.20;;;;;;;7.12;61.16;99167.13;4843289;29;20061;-78
2022/04/13 01:51:20;;;;;;;24.88;10.75;;;;;;;7.15;60.90;99169.56;4843069;29;20045;-79
2022/04/13 01:53:50;;;;;;;23.42;10.85;;;;;;;7.15;60.62;99160.75;4842922;29;20589;-77
2022/04/13 01:56:17;;;;;;;19.02;10.05;;;;;;;7.18;60.79;99172.00;4842939;29;20069;-79
2022/04/13 01:58:43;;;;;;;26.33;9.52;;;;;;;7.32;60.42;99165.72;4827389;29;20054;-78
2022/04/13 02:01:10;;;;;;;15.40;9.70;;;;;;;7.42;59.67;99152.66;4843218;29;20053;-79
2022/04/13 02:03:36;;;;;;;18.10;9.18;;;;;;;7.47;59.40;99162.00;4812895;29;20136;-80
2022/04/13 02:06:03;;;;;;;19.20;8.52;;;;;;;7.56;59.14;99171.16;4827535;29;20092;-80
2022/04/13 02:08:30;;;;;;;28.95;9.20;;;;;;;7.74;59.07;99168.97;4812437;29;20049;-79
2022/04/13 02:10:56;;;;;;;22.65;8.85;;;;;;;7.81;58.35;99172.91;4843165;29;20057;-81
2022/04/13 02:13:22;;;;;;;19.33;9.05;;;;;;;8.01;57.88;99172.34;4842295;29;20081;-79
2022/04/13 02:15:48;;;;;;;19.27;8.32;;;;;;;8.10;57.25;99167.31;4842590;29;20155;-78
2022/04/13 02:18:15;;;;;;;41.83;9.77;;;;;;;8.20;56.86;99165.69;4827350;29;20053;-79
2022/04/13 02:20:41;;;;;;;33.97;8.77;;;;;;;8.26;56.36;99170.56;4827245;29;20049;-79
2022/04/13 02:23:07;;;;;;;27.05;9.80;;;;;;;8.31;56.16;99173.72;4827013;29;20054;-79
2022/04/13 02:25:36;;;;;;;28.45;9.18;;;;;;;8.36;56.03;99176.06;4842083;29;20553;-79
2022/04/13 02:28:06;;;;;;;31.63;9.95;;;;;;;8.41;55.83;99172.13;4811996;29;20045;-79
2022/04/13 02:30:32;;;;;;;27.38;9.75;;;;;;;8.40;55.89;99175.75;4842268;29;20054;-79
2022/04/13 02:32:59;;;;;;;31.88;9.90;;;;;;;8.38;55.69;99168.81;4843155;29;20045;-85
2022/04/13 02:35:25;;;;;;;37.35;11.43;;;;;;;8.51;55.48;99175.81;4842262;29;20582;-80
2022/04/13 02:37:51;;;;;;;36.80;10.85;;;;;;;8.56;55.10;99175.47;4842769;29;20129;-78
2022/04/13 02:40:17;;;;;;;43.45;10.40;;;;;;;8.74;54.96;99184.75;4842284;29;20136;-79
2022/04/13 02:42:43;;;;;;;40.95;11.63;;;;;;;8.61;54.87;99185.75;4841958;29;20054;-77
2022/04/13 02:45:09;;;;;;;44.40;12.35;;;;;;;8.56;54.91;99183.44;4841754;29;20050;-78
2022/04/13 02:47:36;;;;;;;64.75;11.65;;;;;;;8.64;55.10;99185.53;4826362;29;20072;-80
2022/04/13 02:50:08;;;;;;;75.22;13.43;;;;;;;8.74;54.54;99182.06;4842969;29;20073;-79
2022/04/13 02:52:34;;;;;;;100.85;13.70;;;;;;;8.91;54.71;99186.16;4841645;29;20383;-77
2022/04/13 02:55:01;;;;;;;63.53;14.60;;;;;;;9.19;54.18;99184.03;4811630;29;20046;-86
2022/04/13 02:57:27;;;;;;;53.15;13.93;;;;;;;9.28;54.66;99180.66;4845906;29;20049;-91
2022/04/13 02:59:53;;;;;;;87.47;14.40;;;;;;;9.41;53.41;99184.09;4831654;29;20049;-85
2022/04/13 03:02:20;;;;;;;50.05;12.73;;;;;;;9.59;54.42;99156.91;4847387;29;20046;-88
2022/04/13 03:04:46;;;;;;;68.65;12.75;;;;;;;9.90;52.92;99177.53;4847928;29;20046;-87
2022/04/13 03:07:17;;;;;;;94.68;13.90;;;;;;;10.14;52.86;99164.03;4845477;29;20057;-81
2022/04/13 03:09:43;;;;;;;79.68;11.68;;;;;;;10.44;51.52;99175.91;4856250;29;20454;-80
2022/04/13 03:12:10;;;;;;;58.33;10.90;;;;;;;10.51;50.85;99171.75;4843339;29;20041;-80
2022/04/13 03:14:38;;;;;;;82.85;12.77;;;;;;;10.60;50.25;99159.44;4831714;29;20422;-83
2022/04/13 03:17:04;;;;;;;58.70;11.27;;;;;;;10.68;50.27;99164.97;4854883;29;20141;-82
2022/04/13 03:19:31;;;;;;;66.82;11.95;;;;;;;10.75;50.26;99168.00;4837325;29;20114;-84
2022/04/13 03:21:57;;;;;;;79.50;12.15;;;;;;;10.83;49.82;99166.41;4841418;29;20053;-81
2022/04/13 03:24:23;;;;;;;93.40;13.65;;;;;;;10.80;49.80;99166.66;4841385;29;20037;-79
2022/04/13 03:26:50;;;;;;;75.05;12.73;;;;;;;10.75;49.48;99163.50;4810670;29;20141;-80
2022/04/13 03:29:16;;;;;;;69.20;11.65;;;;;;;10.79;49.59;99174.78;4825789;29;20121;-82
2022/04/13 03:31:42;;;;;;;45.88;9.60;;;;;;;10.80;49.67;99177.34;4844680;29;20052;-89
2022/04/13 03:34:08;;;;;;;43.65;9.60;;;;;;;10.81;49.60;99159.47;4846152;29;20455;-88
2022/04/13 03:36:39;;;;;;;51.30;9.30;;;;;;;10.89;49.68;99160.53;4846641;29;20050;-89
2022/04/13 03:39:06;;;;;;;34.90;6.85;;;;;;;10.96;49.05;99162.69;4844387;29;20046;-85
2022/04/13 03:41:34;;;;;;;36.47;6.60;;;;;;;11.02;48.33;99155.00;4843076;29;20053;-85
2022/04/13 03:44:00;;;;;;;23.52;6.60;;;;;;;11.18;48.41;99170.59;4841909;29;20085;-84
2022/04/13 03:46:26;;;;;;;28.05;7.00;;;;;;;11.28;47.89;99166.13;4842014;29;20053;-84
2022/04/13 03:48:52;;;;;;;33.20;6.32;;;;;;;11.33;47.41;99174.63;4825867;29;20041;-84
2022/04/13 03:51:18;;;;;;;33.63;5.82;;;;;;;11.49;47.71;99168.78;4825816;29;20057;-83
2022/04/13 03:53:44;;;;;;;26.65;6.65;;;;;;;11.46;47.83;99174.41;4842744;29;20045;-88
2022/04/13 03:56:10;;;;;;;19.10;4.97;;;;;;;11.52;48.56;99167.69;4840605;29;20052;-83
2022/04/13 03:58:36;;;;;;;22.15;5.70;;;;;;;11.79;49.31;99178.66;4839567;29;20050;-84
2022/04/13 04:01:01;;;;;;;23.00;5.40;;;;;;;12.01;49.02;99176.81;4810352;29;20045;-81
2022/04/13 04:03:27;;;;;;;39.90;7.13;;;;;;;11.96;47.43;99179.91;4841837;29;20050;-83
2022/04/13 04:05:54;;;;;;;17.83;4.95;;;;;;;12.02;47.95;99173.13;4843055;29;20117;-92
2022/04/13 04:08:19;;;;;;;18.42;5.25;;;;;;;12.34;47.95;99165.75;4849896;29;20049;-90
2022/04/13 04:10:45;;;;;;;34.70;6.80;;;;;;;12.68;46.88;99170.75;4845133;29;20050;-86
2022/04/13 04:13:11;;;;;;;56.25;7.32;;;;;;;12.79;45.49;99175.97;4858510;29;20152;-89
2022/04/13 04:15:37;;;;;;;42.97;6.63;;;;;;;12.71;44.99;99157.03;4861659;29;20073;-87
2022/04/13 04:18:03;;;;;;;51.65;8.30;;;;;;;12.82;44.89;99170.28;4853829;29;20106;-87
2022/04/13 04:20:29;;;;;;;29.77;6.35;;;;;;;12.88;44.28;99169.75;4833412;29;20052;-89
2022/04/13 04:22:55;;;;;;;63.22;5.70;;;;;;;13.00;44.60;99172.28;4844725;29;20069;-86
2022/04/13 04:25:21;;;;;;;155.00;11.45;;;;;;;13.07;44.55;99168.03;4828245;29;20457;-89
2022/04/13 04:27:47;;;;;;;51.03;6.60;;;;;;;13.14;44.05;99163.78;4844533;29;20414;-89
2022/04/13 04:30:13;;;;;;;59.92;6.18;;;;;;;13.16;43.96;99160.97;4844425;29;20056;-84
2022/04/13 04:32:39;;;;;;;22.90;5.40;;;;;;;13.13;43.96;99160.28;4813559;29;20042;-87
2022/04/13 04:35:08;;;;;;;16.40;4.90;;;;;;;13.03;43.00;99163.94;4842490;29;20054;-85
2022/04/13 04:37:34;;;;;;;79.75;7.25;;;;;;;12.88;43.84;99161.69;4826649;29;20050;-82
2022/04/13 04:40:00;;;;;;;37.92;6.55;;;;;;;12.85;43.77;99153.09;4845650;29;20422;-81
2022/04/13 04:42:27;;;;;;;43.55;5.85;;;;;;;12.77;44.11;99161.84;4842206;29;20049;-82
2022/04/13 04:44:57;;;;;;;25.67;6.40;;;;;;;12.81;44.00;99152.50;4840712;29;20060;-79
2022/04/13 04:47:24;;;;;;;22.20;5.20;;;;;;;12.67;44.46;99147.56;4812074;29;20049;-83
2022/04/13 04:49:50;;;;;;;41.95;5.63;;;;;;;12.89;44.41;99138.41;4828699;29;20046;-83
2022/04/13 04:52:16;;;;;;;140.93;11.70;;;;;;;13.12;44.51;99147.81;4848604;29;20065;-82
2022/04/13 04:54:42;;;;;;;96.55;8.43;;;;;;;13.39;43.67;99156.13;4850116;29;20050;-81
2022/04/13 04:57:08;;;;;;;62.25;6.93;;;;;;;13.49;43.58;99165.88;4850538;29;20049;-89
2022/04/13 04:59:35;;;;;;;135.75;8.85;;;;;;;13.55;42.88;99151.03;4849353;29;20049;-83
2022/04/13 05:02:01;;;;;;;29.80;5.20;;;;;;;13.59;42.69;99157.78;4846413;29;20081;-84
2022/04/13 05:04:27;;;;;;;161.02;10.50;;;;;;;13.64;43.19;99158.19;4827138;29;20095;-83
2022/04/13 05:06:53;;;;;;;39.13;5.35;;;;;;;13.46;43.33;99162.63;4842239;29;20041;-86
2022/04/13 05:09:20;;;;;;;38.92;5.60;;;;;;;13.58;43.42;99162.31;4825833;29;20053;-87
2022/04/13 05:11:46;;;;;;;26.75;5.40;;;;;;;13.80;42.74;99155.75;4829012;29;20049;-84
2022/04/13 05:14:12;;;;;;;60.30;7.35;;;;;;;13.75;42.78;99160.69;4860093;29;20058;-84
2022/04/13 05:16:38;;;;;;;40.95;5.68;;;;;;;13.80;42.71;99150.38;4831466;29;20077;-82
2022/04/13 05:19:04;;;;;;;12.68;4.07;;;;;;;13.92;42.36;99155.53;4845933;29;20054;-90
2022/04/13 05:21:30;;;;;;;35.65;5.55;;;;;;;14.04;42.31;99157.03;4828992;29;20050;-90
2022/04/13 05:23:56;;;;;;;68.57;6.45;;;;;;;14.24;42.24;99157.75;4855983;29;20053;-93
2022/04/13 05:26:22;;;;;;;186.52;11.45;;;;;;;14.25;42.52;99148.69;4823263;29;20067;-88
2022/04/13 05:28:48;;;;;;;15.43;4.25;;;;;;;14.42;41.67;99155.94;4850277;29;20050;-92
2022/04/13 05:31:14;;;;;;;68.30;6.65;;;;;;;14.33;42.09;99163.09;4829744;29;20050;-86
2022/04/13 05:33:40;;;;;;;61.45;6.25;;;;;;;14.44;41.55;99163.84;4844660;29;20102;-87
2022/04/13 05:36:07;;;;;;;51.83;5.57;;;;;;;14.40;41.80;99167.84;4844073;29;20054;-87
2022/04/13 05:38:33;;;;;;;28.38;5.20;;;;;;;14.47;41.33;99169.78;4813745;29;20050;-84
2022/04/13 05:40:59;;;;;;;24.13;4.70;;;;;;;14.54;41.28;99164.69;4847374;29;20054;-90
2022/04/13 05:43:28;;;;;;;24.70;5.38;;;;;;;14.60;41.33;99164.09;4828046;29;20198;-80
2022/04/13 05:45:54;;;;;;;30.23;4.90;;;;;;;14.69;41.05;99168.53;4815947;29;20044;-86
2022/04/13 05:48:20;;;;;;;19.30;5.00;;;;;;;14.66;41.25;99155.38;4830792;29;20413;-85
2022/04/13 05:50:46;;;;;;;19.52;4.78;;;;;;;14.80;41.23;99157.53;4830933;29;20046;-83
2022/04/13 05:53:12;;;;;;;19.25;4.95;;;;;;;15.00;40.58;99165.44;4833598;29;20042;-80
2022/04/13 05:55:38;;;;;;;11.93;4.38;;;;;;;15.04;45.67;99156.06;4849616;29;20142;-80
2022/04/13 05:58:04;;;;;;;58.65;5.45;;;;;;;15.09;42.74;99164.53;4850695;29;20049;-80
2022/04/13 06:00:29;;;;;;;22.95;4.32;;;;;;;15.02;41.28;99163.44;4838545;29;20050;-83
2022/04/13 06:02:55;;;;;;;33.00;5.97;;;;;;;15.06;42.42;99165.66;4830776;29;20041;-87
2022/04/13 06:05:22;;;;;;;21.27;4.57;;;;;;;14.83;41.63;99156.41;4859739;29;20042;-84
2022/04/13 06:07:48;;;;;;;546.92;26.40;;;;;;;14.86;41.07;99157.94;4854629;29;20073;-81
2022/04/13 06:10:15;;;;;;;93.22;7.45;;;;;;;15.07;41.18;99158.44;4851736;29;20405;-83
2022/04/13 06:12:44;;;;;;;20.10;4.43;;;;;;;15.25;40.43;99163.81;4852706;29;20057;-84
2022/04/13 06:15:12;;;;;;;17.45;6.95;;;;;;;15.16;40.39;99149.44;4839108;29;20049;-81
2022/04/13 06:17:38;;;;;;;10.07;4.22;;;;;;;15.20;39.94;99150.81;4846987;29;20136;-80
2022/04/13 06:20:05;;;;;;;47.08;7.97;;;;;;;14.99;40.70;99153.00;4843897;29;20049;-80
2022/04/13 06:22:33;;;;;;;12.95;4.50;;;;;;;15.14;40.33;99153.28;4844464;29;20057;-84
2022/04/13 06:25:02;;;;;;;9.38;4.03;;;;;;;15.13;40.34;99156.97;4828770;29;20060;-81
2022/04/13 06:27:29;;;;;;;9.35;3.53;;;;;;;15.17;40.65;99156.50;4846299;29;20111;-88
2022/04/13 06:29:56;;;;;;;11.00;4.20;;;;;;;15.33;40.53;99149.53;4831325;29;20545;-80
2022/04/13 06:32:30;;;;;;;17.63;4.60;;;;;;;15.65;40.15;99149.78;4831716;29;20046;-84
2022/04/13 06:34:58;;;;;;;16.58;4.22;;;;;;;15.91;39.33;99155.16;4847671;29;20042;-85
2022/04/13 06:37:24;;;;;;;17.88;4.00;;;;;;;15.89;39.21;99143.66;4844942;29;20080;-85
2022/04/13 06:39:50;;;;;;;18.45;3.55;;;;;;;15.99;39.49;99140.84;4829044;29;20073;-88
2022/04/13 06:42:17;;;;;;;7.95;3.67;;;;;;;15.90;39.58;99152.59;4844223;29;20054;-89
2022/04/13 06:44:43;;;;;;;18.58;4.63;;;;;;;15.63;39.41;99149.06;4835747;29;20106;-90
2022/04/13 06:47:09;;;;;;;10.85;4.40;;;;;;;15.08;40.60;99152.03;4831035;29;20050;-90
2022/04/13 06:49:35;;;;;;;9.02;3.53;;;;;;;14.94;41.44;99153.47;4848707;29;20467;-91
2022/04/13 06:52:00;;;;;;;15.32;3.97;;;;;;;15.16;40.90;99144.06;4845869;29;20486;-87
2022/04/13 06:54:27;;;;;;;7.90;4.25;;;;;;;15.28;41.26;99148.19;4850316;29;20082;-90
2022/04/13 06:56:54;;;;;;;29.35;4.40;;;;;;;15.57;41.03;99141.63;4847365;29;20057;-87
2022/04/13 06:59:20;;;;;;;28.48;4.63;;;;;;;15.64;41.05;99148.03;4861838;29;20050;-85
2022/04/13 07:01:46;;;;;;;19.50;4.68;;;;;;;15.92;40.41;99139.81;4823371;29;20070;-87
2022/04/13 07:04:11;;;;;;;25.50;4.60;;;;;;;15.87;40.05;99147.53;4842651;29;20053;-88
2022/04/13 07:06:37;;;;;;;22.25;5.30;;;;;;;15.87;40.07;99143.00;4853014;29;20053;-88
2022/04/13 07:09:03;;;;;;;23.02;5.25;;;;;;;15.98;40.60;99144.53;4843867;29;20061;-86
2022/04/13 07:11:29;;;;;;;21.67;4.32;;;;;;;16.23;40.14;99135.53;4845069;29;20078;-86
2022/04/13 07:13:56;;;;;;;13.43;3.90;;;;;;;16.52;39.64;99136.97;4828067;29;20058;-89
2022/04/13 07:16:21;;;;;;;16.92;4.05;;;;;;;16.81;38.91;99131.13;4845685;29;20496;-92
2022/04/13 07:18:47;;;;;;;23.60;3.78;;;;;;;16.88;39.01;99137.53;4851967;29;20082;-88
2022/04/13 07:21:13;;;;;;;4.70;3.58;;;;;;;16.98;38.58;99143.63;4824130;29;20049;-89
2022/04/13 07:23:39;;;;;;;9.07;3.85;;;;;;;17.11;38.74;99137.72;4854598;29;20074;-89
2022/04/13 07:26:05;;;;;;;25.83;5.45;;;;;;;17.11;38.30;99137.72;4836086;29;20056;-92
2022/04/13 07:28:31;;;;;;;6.18;4.43;;;;;;;16.63;39.04;99133.94;4833162;29;20061;-92
2022/04/13 07:30:57;;;;;;;52.95;6.05;;;;;;;16.19;39.72;99131.47;4849094;29;20099;-87
2022/04/13 07:33:23;;;;;;;19.20;4.13;;;;;;;16.15;39.71;99135.53;4825274;29;20073;-83
2022/04/13 07:35:48;;;;;;;15.75;3.65;;;;;;;16.12;39.95;99132.31;4826158;29;20053;-85
2022/04/13 07:38:14;;;;;;;18.98;5.10;;;;;;;16.30;40.27;99133.03;4841193;29;20089;-84
2022/04/13 07:40:40;;;;;;;25.25;4.50;;;;;;;16.53;39.94;99127.84;4826388;29;20488;-88
2022/04/13 07:43:07;;;;;;;14.85;4.00;;;;;;;16.86;39.76;99123.38;4841615;29;20057;-86
2022/04/13 07:45:35;;;;;;;71.70;6.45;;;;;;;17.09;38.77;99118.13;4841562;29;20072;-86
2022/04/13 07:48:01;;;;;;;34.90;5.20;;;;;;;16.32;39.48;99124.75;4826040;29;20045;-81
2022/04/13 07:50:26;;;;;;;8.18;4.07;;;;;;;15.93;40.65;99114.53;4847483;29;20109;-86
2022/04/13 07:52:52;;;;;;;15.57;5.65;;;;;;;16.02;40.82;99114.41;4845883;29;20046;-83
2022/04/13 07:55:19;;;;;;;7.88;4.47;;;;;;;16.15;41.15;99119.34;4827934;29;20061;-88
2022/04/13 07:57:44;;;;;;;12.10;4.78;;;;;;;15.97;41.03;99111.34;4842029;29;20097;-82
2022/04/13 08:00:11;;;;;;;18.55;4.68;;;;;;;15.75;41.39;99115.47;4841834;29;20045;-90
2022/04/13 08:02:41;;;;;;;12.23;4.18;;;;;;;16.10;41.52;99105.50;4843677;29;20057;-83
2022/04/13 08:05:08;;;;;;;14.48;4.30;;;;;;;16.21;40.13;99112.44;4844724;29;20058;-81
2022/04/13 08:07:34;;;;;;;7.75;4.20;;;;;;;16.23;40.36;99111.25;4847595;29;20044;-89
2022/04/13 08:10:01;;;;;;;30.83;5.40;;;;;;;16.30;40.18;99116.00;4860886;29;20565;-83
2022/04/13 08:12:31;;;;;;;13.13;4.65;;;;;;;16.49;40.30;99104.91;4863787;29;20057;-91
2022/04/13 08:14:58;;;;;;;13.13;4.78;;;;;;;16.68;40.00;99103.75;4831120;29;20536;-84
2022/04/13 08:17:25;;;;;;;13.93;4.32;;;;;;;16.62;39.60;99099.03;4847135;29;20060;-88
2022/04/13 08:19:52;;;;;;;20.58;5.07;;;;;;;16.39;40.06;99104.22;4830574;29;20045;-91
2022/04/13 08:22:26;;;;;;;11.05;4.35;;;;;;;16.45;39.82;99093.63;4831540;29;20136;-86
2022/04/13 08:24:52;;;;;;;12.20;5.00;;;;;;;16.93;39.62;99093.84;4849096;29;20050;-88
2022/04/13 08:27:18;;;;;;;15.35;5.18;;;;;;;17.06;38.86;99102.25;4863357;29;20528;-86
2022/04/13 08:29:49;;;;;;;13.82;4.30;;;;;;;17.00;38.94;99102.97;4833268;29;20053;-89
2022/04/13 08:32:18;;;;;;;16.10;4.75;;;;;;;17.21;38.76;99105.97;4845702;29;20049;-90
2022/04/13 08:34:46;;;;;;;12.25;5.00;;;;;;;17.51;38.87;99100.84;4833146;29;20553;-88
2022/04/13 08:37:14;;;;;;;19.50;4.75;;;;;;;17.72;38.21;99103.81;4831944;29;20041;-86
2022/04/13 08:39:41;;;;;;;11.55;4.45;;;;;;;17.88;37.68;99091.28;4829328;29;20493;-84
2022/04/13 08:42:13;;;;;;;18.60;4.63;;;;;;;18.09;37.37;99099.66;4843978;29;20525;-85
2022/04/13 08:44:51;;;;;;;13.52;4.22;;;;;;;18.23;36.99;99103.44;4828907;29;20077;-85
2022/04/13 08:47:20;;;;;;;12.23;3.88;;;;;;;18.45;36.94;99112.63;4832615;29;20041;-85
2022/04/13 08:49:50;;;;;;;10.85;4.32;;;;;;;18.56;36.32;99109.50;4833490;29;20109;-87
2022/04/13 08:52:28;;;;;;;27.45;5.38;;;;;;;18.40;36.65;99113.16;4847417;29;20060;-87
2022/04/13 08:55:14;;;;;;;33.33;4.78;;;;;;;18.34;36.74;99107.59;4832768;29;20049;-87
2022/04/13 08:57:48;;;;;;;6.03;3.58;;;;;;;18.29;36.27;99105.44;4854165;29;20052;-86
2022/04/13 09:00:17;;;;;;;27.10;3.63;;;;;;;18.48;36.76;99109.56;4851506;29;20413;-86
2022/04/13 09:03:24;;;;;;;8.55;3.83;;;;;;;18.86;36.38;99101.53;4865631;29;20133;-86
2022/04/13 09:05:54;;;;;;;15.40;3.85;;;;;;;18.91;35.94;99107.22;4845131;29;20050;-87
2022/04/13 09:08:22;;;;;;;21.15;3.92;;;;;;;19.34;36.07;99083.13;4847595;29;20077;-92
2022/04/13 09:10:51;;;;;;;8.57;3.83;;;;;;;19.75;35.76;99104.41;4844937;29;20097;-86
2022/04/13 09:13:19;;;;;;;15.25;3.80;;;;;;;19.70;33.96;99087.84;4844809;29;20283;-87
2022/04/13 09:15:45;;;;;;;23.02;4.38;;;;;;;18.94;34.85;99098.75;4845728;29;20061;-86
2022/04/13 09:18:12;;;;;;;18.45;4.22;;;;;;;18.89;35.72;99095.75;4832248;29;20417;-91
2022/04/13 09:20:39;;;;;;;13.10;4.22;;;;;;;18.54;35.88;99108.84;4815645;29;20052;-88
2022/04/13 09:23:05;;;;;;;20.55;3.42;;;;;;;17.97;36.67;99114.56;4844397;29;20045;-88
2022/04/13 09:25:33;;;;;;;13.90;3.70;;;;;;;17.98;37.35;99109.97;4845719;29;20520;-88
2022/04/13 09:28:01;;;;;;;42.72;4.20;;;;;;;18.60;36.66;99105.41;4844238;29;20045;-88
2022/04/13 09:30:28;;;;;;;9.50;3.27;;;;;;;19.08;35.97;99100.66;4845911;29;20054;-87
2022/04/13 09:32:54;;;;;;;9.55;3.22;;;;;;;19.40;34.83;99098.63;4844692;29;20526;-88
2022/04/13 09:35:21;;;;;;;76.18;5.70;;;;;;;19.63;34.35;99104.88;4813775;29;20057;-89
2022/04/13 09:37:47;;;;;;;11.48;4.03;;;;;;;19.57;34.39;99102.88;4830355;29;20537;-90
2022/04/13 09:40:31;;;;;;;3.40;2.92;;;;;;;19.83;34.03;99098.88;4848113;29;20113;-89
2022/04/13 09:43:17;;;;;;;7.93;3.20;;;;;;;20.19;34.13;99103.50;4845902;29;20065;-88
2022/04/13 09:45:49;;;;;;;15.75;3.45;;;;;;;20.65;33.38;99103.19;4821757;29;20127;-88
2022/04/13 09:48:21;;;;;;;13.35;3.50;;;;;;;20.90;33.55;99104.50;4814633;29;20093;-89
2022/04/13 09:50:50;;;;;;;13.68;3.35;;;;;;;21.18;33.15;99104.53;4829658;29;20041;-87
2022/04/13 09:53:17;;;;;;;4.85;2.30;;;;;;;21.40;32.65;99096.34;4847644;29;20068;-90
2022/04/13 09:55:52;;;;;;;5.13;2.60;;;;;;;21.55;31.80;99095.22;4800254;29;20045;-88
2022/04/13 09:58:19;;;;;;;8.77;2.95;;;;;;;21.78;31.52;99083.22;4817880;29;20046;-89
2022/04/13 10:00:48;;;;;;;8.18;2.80;;;;;;;21.96;31.48;99097.09;4848606;29;20121;-91
2022/04/13 10:03:19;;;;;;;7.07;2.92;;;;;;;22.02;30.34;99093.59;4845148;29;20561;-88
2022/04/13 10:05:53;;;;;;;9.32;2.88;;;;;;;21.38;31.27;99077.53;4817523;29;20050;-89
2022/04/13 10:08:22;;;;;;;4.97;2.95;;;;;;;21.87;31.71;99084.72;4832590;29;20041;-90
2022/04/13 10:10:49;;;;;;;;;;;;;;;22.19;30.46;99085.94;4833048;29;20054;-88
2022/04/13 10:13:35;;;;;;;11.23;2.70;;;;;;;22.16;30.54;99086.34;4863034;29;20476;-91
2022/04/13 10:16:04;;;;;;;6.78;3.20;;;;;;;22.52;30.55;99075.13;4828839;29;20068;-87
2022/04/13 10:19:00;;;;;;;5.97;2.72;;;;;;;22.57;29.88;99070.94;4798632;29;20098;-87
2022/04/13 10:21:37;;;;;;;8.65;2.33;;;;;;;22.05;30.11;99076.84;4844296;29;20054;-89
2022/04/13 10:24:04;;;;;;;5.85;2.60;;;;;;;21.53;30.69;99070.09;4798921;29;20061;-88
2022/04/13 10:26:30;;;;;;;6.63;2.25;;;;;;;21.10;31.32;99063.94;4843933;29;20050;-89
2022/04/13 10:28:57;;;;;;;10.73;2.70;;;;;;;21.20;31.48;99066.28;4830224;29;20053;-89
2022/04/13 10:31:22;;;;;;;23.42;4.07;;;;;;;21.46;30.83;99061.06;4846815;29;20053;-90
2022/04/13 10:33:49;;;;;;;19.55;4.15;;;;;;;21.95;31.02;99068.22;4831854;29;20121;-90
2022/04/13 10:36:16;;;;;;;14.25;2.72;;;;;;;22.60;29.61;99054.19;4848243;29;20104;-88
2022/04/13 10:38:45;;;;;;;15.52;3.03;;;;;;;22.34;29.95;99055.84;4849276;29;20062;-89
2022/04/13 10:41:16;;;;;;;;;;;;;;;22.62;30.00;99055.66;4845142;29;20084;-90
2022/04/13 10:43:55;;;;;;;4.57;2.42;;;;;;;23.24;29.49;99064.50;4829030;29;19965;-88
2022/04/13 10:46:21;;;;;;;15.30;2.70;;;;;;;23.54;28.25;99053.13;4814187;29;20053;-88
2022/04/13 10:48:55;;;;;;;70.47;4.63;;;;;;;23.89;27.93;99060.00;4828636;29;20049;-88
2022/04/13 10:51:25;;;;;;;12.70;2.60;;;;;;;24.27;27.80;99051.00;4843982;29;20425;-90
2022/04/13 10:54:06;;;;;;;22.65;3.13;;;;;;;24.82;27.54;99050.44;4829044;29;20049;-88
2022/04/13 10:56:33;;;;;;;6.38;2.40;;;;;;;24.85;26.98;99055.47;4829442;29;20556;-85
2022/04/13 10:59:21;;;;;;;5.15;2.42;;;;;;;25.43;26.21;99057.94;4798487;29;20113;-90
2022/04/13 11:02:11;;;;;;;7.37;2.50;;;;;;;25.62;26.07;99043.22;4828762;29;20489;-89
2022/04/13 11:04:38;;;;;;;9.65;2.33;;;;;;;25.83;25.78;99050.13;4842577;29;20485;-89
2022/04/13 11:07:05;;;;;;;69.20;5.38;;;;;;;25.53;25.76;99049.19;4829627;29;20050;-89
2022/04/13 11:09:37;;;;;;;13.30;2.40;;;;;;;25.72;25.68;99047.31;4814263;29;20114;-87
2022/04/13 11:12:04;;;;;;;5.78;2.22;;;;;;;26.16;25.67;99055.22;4797545;29;20513;-87
2022/04/13 11:14:30;;;;;;;23.70;2.60;;;;;;;26.37;25.46;99056.63;4827835;29;20064;-87
2022/04/13 11:17:06;;;;;;;47.35;4.05;;;;;;;26.32;24.84;99045.50;4845998;29;20502;-88
2022/04/13 11:19:32;;;;;;;15.77;3.22;;;;;;;26.67;25.08;99046.72;4827938;29;20470;-90
2022/04/13 11:21:58;;;;;;;11.55;2.60;;;;;;;26.66;24.80;99048.63;4828038;29;20132;-90
2022/04/13 11:24:35;;;;;;;24.77;3.75;;;;;;;27.20;23.73;99043.16;4845424;29;20092;-90
2022/04/13 11:27:03;;;;;;;16.98;2.78;;;;;;;27.47;23.71;99044.34;4843752;29;20053;-90
2022/04/13 11:29:34;;;;;;;8.13;2.55;;;;;;;27.58;23.03;99050.91;4813087;29;20074;-91